Time;durP1;ratioP1;P1;durP2;ratioP2;P2;SDS_P1;SDS_P2;PMS_P1;PMS_P2;Temp;Humidity;BMP_temperature;BMP_pressure;BME280_temperature;BME280_humidity;BME280_pressure;Samples;Min_cycle;Max_cycle;Signal;HPM_P1;HPM_P2
2020/12/10 00:01:22;;;;;;;52.40;31.10;;;3.50;99.90;;;;;;5051307;28;20574;-77
2020/12/10 00:03:51;;;;;;;51.63;32.30;;;3.40;99.90;;;;;;5051323;28;20475;-77
2020/12/10 00:06:19;;;;;;;53.83;30.97;;;3.40;99.90;;;;;;5035994;28;20509;-77
2020/12/10 00:08:46;;;;;;;51.07;35.40;;;3.40;99.90;;;;;;5051550;28;20453;-77
2020/12/10 00:11:13;;;;;;;56.10;33.50;;;3.30;99.90;;;;;;5051838;28;21032;-77
2020/12/10 00:13:41;;;;;;;57.10;35.63;;;3.40;99.90;;;;;;5051594;28;20541;-77
2020/12/10 00:16:10;;;;;;;57.40;35.37;;;3.40;99.90;;;;;;5035956;28;20439;-77
2020/12/10 00:18:38;;;;;;;55.43;34.90;;;3.40;99.90;;;;;;5051584;28;20466;-77
2020/12/10 00:21:07;;;;;;;60.17;35.77;;;3.40;99.90;;;;;;5051234;28;20480;-77
2020/12/10 00:23:34;;;;;;;55.07;36.03;;;3.40;99.90;;;;;;5051247;28;20509;-77
2020/12/10 00:26:03;;;;;;;61.13;35.90;;;3.40;99.90;;;;;;5034460;28;20485;-77
2020/12/10 00:28:30;;;;;;;58.80;36.70;;;3.30;99.90;;;;;;5051166;28;20529;-77
2020/12/10 00:30:57;;;;;;;60.83;36.83;;;3.40;99.90;;;;;;5035452;28;20489;-77
2020/12/10 00:33:24;;;;;;;59.70;37.93;;;3.30;99.90;;;;;;5051067;28;20459;-77
2020/12/10 00:35:51;;;;;;;57.70;36.20;;;3.30;99.90;;;;;;5035737;28;20452;-77
2020/12/10 00:38:19;;;;;;;59.67;37.17;;;3.30;99.90;;;;;;5050854;28;20811;-77
2020/12/10 00:40:47;;;;;;;59.67;35.33;;;3.30;99.90;;;;;;5035292;28;21021;-77
2020/12/10 00:43:14;;;;;;;62.83;39.47;;;3.30;99.90;;;;;;5050760;28;20447;-77
2020/12/10 00:45:41;;;;;;;63.07;39.07;;;3.30;99.90;;;;;;5035449;28;20446;-77
2020/12/10 00:48:08;;;;;;;59.70;33.73;;;3.30;99.90;;;;;;5050709;28;20454;-77
2020/12/10 00:50:35;;;;;;;61.70;37.20;;;3.30;99.90;;;;;;5050838;28;21005;-77
2020/12/10 00:53:03;;;;;;;59.57;36.03;;;3.30;99.90;;;;;;5035719;28;20479;-78
2020/12/10 00:55:31;;;;;;;65.40;38.23;;;3.30;99.90;;;;;;5050813;28;20982;-77
2020/12/10 00:57:59;;;;;;;58.77;34.13;;;3.30;99.90;;;;;;5051375;28;20465;-78
2020/12/10 01:00:26;;;;;;;59.73;37.73;;;3.30;99.90;;;;;;5035181;28;20546;-77
2020/12/10 01:02:53;;;;;;;62.80;39.27;;;3.30;99.90;;;;;;5050541;28;20629;-77
2020/12/10 01:05:20;;;;;;;62.00;37.70;;;3.30;99.90;;;;;;5035369;28;20479;-77
2020/12/10 01:07:49;;;;;;;64.93;40.30;;;3.30;99.90;;;;;;5050510;28;20557;-77
2020/12/10 01:10:17;;;;;;;60.37;40.07;;;3.40;99.90;;;;;;5050458;28;20818;-77
2020/12/10 01:12:45;;;;;;;55.43;38.03;;;3.30;99.90;;;;;;5035257;28;20439;-77
2020/12/10 01:15:12;;;;;;;59.80;36.27;;;3.30;99.90;;;;;;5050295;28;20483;-78
2020/12/10 01:17:42;;;;;;;66.30;39.20;;;3.40;99.90;;;;;;5035170;28;20445;-77
2020/12/10 01:20:10;;;;;;;63.40;39.07;;;3.40;99.90;;;;;;5034839;28;20471;-77
2020/12/10 01:22:38;;;;;;;57.97;37.20;;;3.30;99.90;;;;;;5050259;28;20441;-77
2020/12/10 01:25:06;;;;;;;60.97;38.00;;;3.40;99.90;;;;;;5050209;28;20443;-77
2020/12/10 01:27:33;;;;;;;59.80;35.97;;;3.40;99.90;;;;;;5049464;28;20517;-77
2020/12/10 01:30:01;;;;;;;56.83;38.13;;;3.40;99.90;;;;;;5049625;28;20915;-78
2020/12/10 01:32:28;;;;;;;55.50;35.80;;;3.40;99.90;;;;;;5050113;28;20446;-77
2020/12/10 01:34:56;;;;;;;56.17;35.33;;;3.40;99.90;;;;;;5049715;28;20457;-78
2020/12/10 01:37:23;;;;;;;56.83;36.07;;;3.40;99.90;;;;;;5049651;28;20451;-78
2020/12/10 01:39:50;;;;;;;57.07;36.17;;;3.40;99.90;;;;;;5034160;28;20534;-78
2020/12/10 01:42:18;;;;;;;63.13;37.77;;;3.40;99.90;;;;;;5049870;28;20446;-78
2020/12/10 01:44:45;;;;;;;61.40;38.53;;;3.40;99.90;;;;;;5051935;28;20574;-78
2020/12/10 01:47:13;;;;;;;56.07;35.50;;;3.40;99.90;;;;;;5049951;28;20464;-78
2020/12/10 01:49:41;;;;;;;58.53;37.23;;;3.40;99.90;;;;;;5034342;28;20504;-77
2020/12/10 01:52:08;;;;;;;60.53;36.80;;;3.30;99.90;;;;;;5049651;28;20994;-77
2020/12/10 01:54:35;;;;;;;51.30;34.40;;;3.40;99.90;;;;;;5034166;28;20438;-77
2020/12/10 01:57:03;;;;;;;61.43;34.37;;;3.30;99.90;;;;;;5034361;28;20518;-77
2020/12/10 01:59:30;;;;;;;58.70;36.70;;;3.40;99.90;;;;;;5049691;28;20481;-78
2020/12/10 02:01:58;;;;;;;52.73;35.60;;;3.30;99.90;;;;;;5049287;28;20471;-77
2020/12/10 02:04:29;;;;;;;55.80;32.83;;;3.30;99.90;;;;;;5032697;28;20472;-77
2020/12/10 02:06:56;;;;;;;56.43;37.47;;;3.30;99.90;;;;;;5049378;28;20477;-77
2020/12/10 02:09:24;;;;;;;55.90;35.63;;;3.30;99.90;;;;;;5049393;28;20439;-77
2020/12/10 02:11:51;;;;;;;55.57;35.67;;;3.30;99.90;;;;;;5049234;28;20491;-77
2020/12/10 02:14:18;;;;;;;55.87;36.93;;;3.40;99.90;;;;;;5049175;28;20816;-77
2020/12/10 02:16:46;;;;;;;57.53;36.93;;;3.30;99.90;;;;;;5049209;28;20499;-78
2020/12/10 02:19:13;;;;;;;54.77;34.13;;;3.30;99.90;;;;;;5049203;28;20446;-78
2020/12/10 02:21:41;;;;;;;52.80;35.20;;;3.30;99.90;;;;;;5048816;28;20986;-78
2020/12/10 02:24:12;;;;;;;54.67;37.20;;;3.30;99.90;;;;;;5033528;28;20439;-77
2020/12/10 02:26:39;;;;;;;58.73;35.00;;;3.30;99.90;;;;;;5033617;28;20519;-77
2020/12/10 02:29:07;;;;;;;55.83;36.30;;;3.30;99.90;;;;;;5049035;28;20439;-78
2020/12/10 02:31:35;;;;;;;54.77;38.43;;;3.30;99.90;;;;;;5033348;28;20478;-78
2020/12/10 02:34:04;;;;;;;57.40;36.20;;;3.30;99.90;;;;;;5048757;28;20446;-77
2020/12/10 02:36:32;;;;;;;58.53;38.03;;;3.30;99.90;;;;;;5048601;28;20940;-77
2020/12/10 02:38:59;;;;;;;60.63;38.10;;;3.30;99.90;;;;;;5031765;28;20454;-77
2020/12/10 02:41:28;;;;;;;58.77;39.10;;;3.30;99.90;;;;;;5048319;28;20482;-77
2020/12/10 02:43:55;;;;;;;60.20;38.90;;;3.40;99.90;;;;;;5033162;28;20500;-78
2020/12/10 02:46:22;;;;;;;60.40;37.47;;;3.30;99.90;;;;;;5033063;28;20441;-78
2020/12/10 02:48:50;;;;;;;58.40;35.03;;;3.30;99.90;;;;;;5032988;28;20444;-78
2020/12/10 02:51:17;;;;;;;60.90;37.07;;;3.30;99.90;;;;;;5048888;28;20839;-77
2020/12/10 02:53:44;;;;;;;55.63;37.40;;;3.30;99.90;;;;;;5033987;28;20964;-77
2020/12/10 02:56:13;;;;;;;63.13;39.60;;;3.30;99.90;;;;;;5033438;28;20872;-77
2020/12/10 02:58:42;;;;;;;63.13;39.30;;;3.30;99.90;;;;;;5048684;28;20485;-78
2020/12/10 03:01:17;;;;;;;62.00;38.90;;;3.30;99.90;;;;;;5033418;28;20474;-78
2020/12/10 03:03:58;;;;;;;60.00;37.13;;;3.20;99.90;;;;;;5031726;28;20445;-77
2020/12/10 03:06:31;;;;;;;63.57;36.50;;;3.40;99.90;;;;;;5033087;28;20181;-78
2020/12/10 03:08:58;;;;;;;52.27;33.13;;;3.30;99.90;;;;;;5048417;28;20530;-78
2020/12/10 03:11:25;;;;;;;59.80;34.78;;;3.30;99.90;;;;;;5032738;28;20807;-77
2020/12/10 03:13:54;;;;;;;55.67;38.60;;;3.30;99.90;;;;;;5048386;28;20566;-78
2020/12/10 03:16:21;;;;;;;65.10;39.47;;;3.30;99.90;;;;;;5048244;28;20513;-78
2020/12/10 03:18:49;;;;;;;58.90;38.77;;;3.30;99.90;;;;;;5048355;28;20453;-78
2020/12/10 03:21:16;;;;;;;62.63;39.00;;;3.30;99.90;;;;;;5032498;28;20509;-78
2020/12/10 03:23:43;;;;;;;57.23;37.10;;;3.30;99.90;;;;;;5048207;28;20439;-78
2020/12/10 03:26:10;;;;;;;61.40;40.87;;;3.30;99.90;;;;;;5033115;28;20497;-77
2020/12/10 03:28:37;;;;;;;63.07;39.33;;;3.30;99.90;;;;;;5048628;28;20468;-77
2020/12/10 03:31:05;;;;;;;60.40;40.00;;;3.30;99.90;;;;;;5032918;28;20558;-78
2020/12/10 03:33:32;;;;;;;62.80;37.47;;;3.30;99.90;;;;;;5048442;28;20880;-77
2020/12/10 03:36:00;;;;;;;56.27;38.40;;;3.20;99.90;;;;;;5032892;28;20546;-78
2020/12/10 03:38:27;;;;;;;60.30;38.67;;;3.20;99.90;;;;;;5048469;28;20473;-77
2020/12/10 03:40:54;;;;;;;56.87;42.00;;;3.20;99.90;;;;;;5031551;28;20485;-78
2020/12/10 03:43:21;;;;;;;58.00;37.30;;;3.20;99.90;;;;;;5033070;28;20436;-77
2020/12/10 03:45:49;;;;;;;62.03;38.73;;;3.30;99.90;;;;;;5032856;28;20485;-78
2020/12/10 03:48:16;;;;;;;63.63;38.00;;;3.30;99.90;;;;;;5048569;28;20445;-78
2020/12/10 03:50:44;;;;;;;56.03;36.90;;;3.30;99.90;;;;;;5032854;28;20483;-77
2020/12/10 03:53:11;;;;;;;56.60;37.60;;;3.30;99.90;;;;;;5051632;28;20437;-78
2020/12/10 03:55:38;;;;;;;55.93;37.83;;;3.30;99.90;;;;;;5035358;28;20940;-78
2020/12/10 03:58:05;;;;;;;55.67;39.43;;;3.30;99.90;;;;;;5053410;28;20446;-77
2020/12/10 04:00:32;;;;;;;59.70;38.23;;;3.30;99.90;;;;;;5051498;28;20874;-77
2020/12/10 04:03:00;;;;;;;59.83;40.73;;;3.20;99.90;;;;;;5036306;28;20441;-78
2020/12/10 04:05:28;;;;;;;56.03;38.70;;;3.20;99.90;;;;;;5051755;28;20450;-77
2020/12/10 04:07:55;;;;;;;59.03;38.67;;;3.30;99.90;;;;;;5036337;28;20444;-77
2020/12/10 04:10:22;;;;;;;63.00;38.70;;;3.30;99.90;;;;;;5034832;28;20462;-77
2020/12/10 04:12:50;;;;;;;63.00;41.67;;;3.20;99.90;;;;;;5051567;28;20553;-77
2020/12/10 04:15:17;;;;;;;63.70;41.40;;;3.20;99.90;;;;;;5051637;28;20456;-77
2020/12/10 04:17:44;;;;;;;55.60;35.27;;;3.20;99.90;;;;;;5036051;28;20418;-78
2020/12/10 04:20:11;;;;;;;57.33;37.47;;;3.20;99.90;;;;;;5035999;28;20995;-78
2020/12/10 04:22:39;;;;;;;63.67;38.93;;;3.20;99.90;;;;;;5035736;28;20467;-78
2020/12/10 04:25:07;;;;;;;55.47;38.00;;;3.30;99.90;;;;;;5051042;28;20560;-77
2020/12/10 04:27:34;;;;;;;58.00;36.13;;;3.20;99.90;;;;;;5035617;28;20538;-77
2020/12/10 04:30:01;;;;;;;58.97;37.70;;;3.20;99.90;;;;;;5050871;28;20449;-77
2020/12/10 04:32:28;;;;;;;59.37;37.47;;;3.30;99.90;;;;;;5051089;28;20979;-78
2020/12/10 04:34:55;;;;;;;65.83;39.63;;;3.20;99.90;;;;;;5035590;28;20435;-77
2020/12/10 04:37:23;;;;;;;63.43;41.30;;;3.20;99.90;;;;;;5034307;28;20544;-78
2020/12/10 04:39:51;;;;;;;63.47;41.47;;;3.20;99.90;;;;;;5035406;28;20438;-78
2020/12/10 04:42:19;;;;;;;67.33;43.10;;;3.20;99.90;;;;;;5035362;28;20499;-78
2020/12/10 04:44:47;;;;;;;69.53;40.77;;;3.30;99.90;;;;;;5050979;28;20443;-77
2020/12/10 04:47:14;;;;;;;62.30;41.57;;;3.30;99.90;;;;;;5050968;28;20452;-78
2020/12/10 04:49:43;;;;;;;60.50;37.50;;;3.20;99.90;;;;;;5035279;28;20441;-78
2020/12/10 04:52:12;;;;;;;64.93;41.30;;;3.20;99.90;;;;;;5051729;28;20821;-77
2020/12/10 04:54:40;;;;;;;64.13;41.00;;;3.20;99.90;;;;;;5035056;28;20947;-78
2020/12/10 04:57:10;;;;;;;59.13;40.93;;;3.20;99.90;;;;;;5050529;28;20481;-78
2020/12/10 04:59:39;;;;;;;61.27;39.80;;;3.20;99.90;;;;;;5050525;28;20444;-78
2020/12/10 05:02:09;;;;;;;64.00;40.90;;;3.30;99.90;;;;;;5050681;28;20946;-78
2020/12/10 05:04:37;;;;;;;61.20;40.70;;;3.20;99.90;;;;;;5034982;28;20430;-78
2020/12/10 05:07:04;;;;;;;65.27;41.83;;;3.30;99.90;;;;;;5050529;28;20473;-77
2020/12/10 05:09:31;;;;;;;61.60;41.10;;;3.30;99.90;;;;;;5035086;28;20533;-77
2020/12/10 05:11:58;;;;;;;77.40;47.47;;;3.30;99.90;;;;;;5050358;28;20469;-78
2020/12/10 05:14:34;;;;;;;66.97;41.50;;;3.30;99.90;;;;;;5050449;28;20504;-77
2020/12/10 05:17:11;;;;;;;61.77;40.87;;;3.30;99.90;;;;;;5050322;28;20495;-77
2020/12/10 05:19:39;;;;;;;63.93;41.27;;;3.30;99.90;;;;;;5050485;28;20533;-77
2020/12/10 05:22:08;;;;;;;69.43;41.60;;;3.30;99.90;;;;;;5033513;28;20485;-78
2020/12/10 05:24:35;;;;;;;61.60;40.77;;;3.30;99.90;;;;;;5050539;28;20481;-77
2020/12/10 05:27:17;;;;;;;68.83;41.90;;;3.30;99.90;;;;;;5050385;28;20422;-77
2020/12/10 05:29:46;;;;;;;75.27;43.07;;;3.30;99.90;;;;;;5050148;28;20479;-77
2020/12/10 05:32:37;;;;;;;65.83;40.77;;;3.30;99.90;;;;;;5033630;28;20478;-77
2020/12/10 05:35:24;;;;;;;60.03;40.43;;;3.30;99.90;;;;;;5050138;28;20464;-77
2020/12/10 05:37:53;;;;;;;70.78;42.08;;;3.30;99.90;;;;;;5048864;28;20927;-77
2020/12/10 05:40:21;;;;;;;75.23;42.90;;;3.40;99.90;;;;;;5049867;28;20224;-77
2020/12/10 05:42:50;;;;;;;67.87;43.47;;;3.40;99.90;;;;;;5050069;28;20556;-77
2020/12/10 05:45:20;;;;;;;69.32;42.03;;;3.40;99.90;;;;;;5049545;28;20449;-77
2020/12/10 05:47:55;;;;;;;73.47;42.73;;;3.40;99.90;;;;;;5050215;28;20207;-77
2020/12/10 05:50:25;;;;;;;66.77;39.70;;;3.40;99.90;;;;;;5034418;28;20554;-77
2020/12/10 05:53:04;;;;;;;67.60;41.93;;;3.40;99.90;;;;;;5034330;28;20465;-77
2020/12/10 05:55:32;;;;;;;66.70;42.40;;;3.40;99.90;;;;;;5049767;28;20439;-78
2020/12/10 05:58:00;;;;;;;70.53;44.50;;;3.40;99.90;;;;;;5034350;28;20451;-77
2020/12/10 06:00:28;;;;;;;71.07;41.90;;;3.40;99.90;;;;;;5049515;28;20469;-77
2020/12/10 06:02:56;;;;;;;74.83;44.40;;;3.40;99.90;;;;;;5034144;28;20467;-77
2020/12/10 06:05:25;;;;;;;74.20;45.60;;;3.40;99.90;;;;;;5049505;28;20489;-77
2020/12/10 06:08:00;;;;;;;70.57;40.53;;;3.40;99.90;;;;;;5050444;28;20481;-77
2020/12/10 06:10:28;;;;;;;73.07;44.30;;;3.40;99.90;;;;;;5055268;28;20470;-77
2020/12/10 06:12:58;;;;;;;70.97;40.93;;;3.30;99.90;;;;;;5033980;28;20493;-77
2020/12/10 06:15:26;;;;;;;76.73;45.03;;;3.30;99.90;;;;;;5033485;28;20425;-77
2020/12/10 06:18:09;;;;;;;71.07;40.77;;;3.40;99.90;;;;;;5033749;28;20441;-77
2020/12/10 06:20:39;;;;;;;79.07;44.80;;;3.40;99.90;;;;;;5049284;28;20589;-77
2020/12/10 06:23:32;;;;;;;71.77;42.07;;;3.40;99.90;;;;;;5048977;28;21140;-77
2020/12/10 06:26:26;;;;;;;72.00;42.43;;;3.40;99.90;;;;;;5049189;28;20853;-77
2020/12/10 06:29:17;;;;;;;68.17;42.90;;;3.40;99.90;;;;;;5048805;28;20453;-77
2020/12/10 06:32:04;;;;;;;68.97;42.17;;;3.40;99.90;;;;;;5049013;28;20563;-77
2020/12/10 06:34:45;;;;;;;77.00;44.50;;;3.40;99.90;;;;;;5032161;28;20444;-77
2020/12/10 06:37:20;;;;;;;72.00;43.37;;;3.30;99.90;;;;;;5033713;28;20442;-78
2020/12/10 06:39:49;;;;;;;69.07;42.77;;;3.30;99.90;;;;;;5048523;28;20447;-77
2020/12/10 06:42:16;;;;;;;76.43;43.63;;;3.30;99.90;;;;;;5048725;28;20466;-77
2020/12/10 06:44:44;;;;;;;68.60;42.80;;;3.30;99.90;;;;;;5048768;28;20850;-77
2020/12/10 06:47:12;;;;;;;71.97;41.93;;;3.40;99.90;;;;;;5048665;28;20449;-77
2020/12/10 06:49:41;;;;;;;71.10;41.73;;;3.40;99.90;;;;;;5032488;28;20446;-77
2020/12/10 06:52:13;;;;;;;68.37;43.20;;;3.40;99.90;;;;;;5048813;28;20549;-77
2020/12/10 06:55:10;;;;;;;69.70;39.93;;;3.40;99.90;;;;;;5033394;28;20420;-77
2020/12/10 06:58:12;;;;;;;74.33;44.43;;;3.40;99.90;;;;;;5048790;28;20513;-77
2020/12/10 07:00:45;;;;;;;73.50;41.13;;;3.40;99.90;;;;;;4991234;28;20467;-78
2020/12/10 07:03:19;;;;;;;79.10;43.30;;;3.40;99.90;;;;;;5033089;28;20512;-78
2020/12/10 07:05:48;;;;;;;77.60;44.37;;;3.40;99.90;;;;;;5048701;28;20520;-78
2020/12/10 07:08:18;;;;;;;84.07;45.23;;;3.40;99.90;;;;;;5033145;28;20468;-78
2020/12/10 07:10:48;;;;;;;80.17;44.07;;;3.40;99.90;;;;;;5033147;28;21124;-78
2020/12/10 07:13:17;;;;;;;88.27;43.70;;;3.40;99.90;;;;;;5048551;28;20451;-78
2020/12/10 07:15:49;;;;;;;78.33;43.10;;;3.40;99.90;;;;;;5048307;28;20447;-78
2020/12/10 07:18:17;;;;;;;96.73;44.80;;;3.40;99.90;;;;;;5048520;28;20470;-78
2020/12/10 07:20:44;;;;;;;89.37;41.30;;;3.40;99.90;;;;;;5031850;28;20473;-78
2020/12/10 07:23:13;;;;;;;86.50;42.87;;;3.40;99.90;;;;;;5032973;28;20462;-78
2020/12/10 07:25:40;;;;;;;87.57;45.93;;;3.40;99.90;;;;;;5048437;28;20441;-78
2020/12/10 07:28:07;;;;;;;107.43;47.30;;;3.40;99.90;;;;;;5052163;28;20454;-78
2020/12/10 07:30:34;;;;;;;92.57;43.80;;;3.40;99.90;;;;;;5036929;28;20512;-78
2020/12/10 07:33:04;;;;;;;91.47;45.90;;;3.40;99.90;;;;;;5052104;28;20537;-77
2020/12/10 07:35:34;;;;;;;90.43;43.60;;;3.40;99.90;;;;;;5035213;28;20826;-78
2020/12/10 07:38:09;;;;;;;91.53;45.80;;;3.40;99.90;;;;;;5052084;28;20443;-78
2020/12/10 07:40:38;;;;;;;97.63;47.90;;;3.40;99.90;;;;;;5036699;28;20468;-78
2020/12/10 07:43:07;;;;;;;92.50;42.70;;;3.40;99.90;;;;;;5052104;28;20458;-78
2020/12/10 07:45:34;;;;;;;96.77;45.70;;;3.40;99.90;;;;;;5051928;28;20458;-78
2020/12/10 07:48:03;;;;;;;101.50;48.80;;;3.40;99.90;;;;;;5052145;28;20454;-78
2020/12/10 07:50:32;;;;;;;95.37;46.10;;;3.40;99.90;;;;;;5051978;28;20883;-78
2020/12/10 07:53:07;;;;;;;98.50;45.13;;;3.50;99.90;;;;;;5036583;28;20426;-79
2020/12/10 07:55:36;;;;;;;106.13;45.97;;;3.50;99.90;;;;;;5051752;28;20443;-78
2020/12/10 07:58:36;;;;;;;104.83;46.67;;;3.50;99.90;;;;;;5051615;28;21034;-78
2020/12/10 08:01:05;;;;;;;100.67;45.80;;;3.50;99.90;;;;;;4975412;28;20556;-78
2020/12/10 08:03:49;;;;;;;97.53;48.90;;;3.50;99.90;;;;;;5019969;28;20443;-78
2020/12/10 08:06:17;;;;;;;92.30;46.67;;;3.50;99.90;;;;;;5032936;28;20445;-78
2020/12/10 08:08:47;;;;;;;86.17;45.87;;;3.50;99.90;;;;;;5051369;28;20560;-78
2020/12/10 08:11:16;;;;;;;92.50;45.42;;;3.50;99.90;;;;;;5050464;28;20947;-78
2020/12/10 08:13:59;;;;;;;84.80;44.40;;;3.60;99.90;;;;;;5051645;28;20652;-78
2020/12/10 08:16:41;;;;;;;87.93;44.00;;;3.60;99.90;;;;;;5036397;28;20942;-78
2020/12/10 08:19:13;;;;;;;98.15;47.25;;;3.60;99.90;;;;;;5035079;28;20440;-78
2020/12/10 08:21:40;;;;;;;94.37;47.00;;;3.70;99.90;;;;;;5035841;28;20212;-79
2020/12/10 08:24:07;;;;;;;94.83;44.30;;;3.60;99.90;;;;;;5051237;28;21001;-78
2020/12/10 08:26:35;;;;;;;91.73;42.63;;;3.60;99.90;;;;;;5050940;28;20944;-78
2020/12/10 08:29:03;;;;;;;83.13;42.90;;;3.60;99.90;;;;;;5035611;28;20416;-78
2020/12/10 08:31:32;;;;;;;93.10;48.07;;;3.50;99.90;;;;;;5050924;28;20514;-78
2020/12/10 08:34:00;;;;;;;83.43;44.10;;;3.50;99.90;;;;;;5051037;28;20529;-78
2020/12/10 08:36:30;;;;;;;95.10;45.90;;;3.50;99.90;;;;;;5051133;28;20656;-78
2020/12/10 08:39:00;;;;;;;84.50;47.73;;;3.60;99.90;;;;;;5035531;28;20414;-78
2020/12/10 08:41:30;;;;;;;87.17;44.93;;;3.60;99.90;;;;;;5050644;28;20479;-78
2020/12/10 08:43:59;;;;;;;84.33;45.53;;;3.60;99.90;;;;;;5051098;28;20526;-78
2020/12/10 08:46:29;;;;;;;82.57;43.13;;;3.60;99.90;;;;;;5050907;28;20480;-78
2020/12/10 08:49:13;;;;;;;84.10;42.70;;;3.60;99.90;;;;;;5050882;28;20715;-78
2020/12/10 08:51:42;;;;;;;90.17;45.93;;;3.60;99.90;;;;;;5035260;28;20966;-77
2020/12/10 08:54:09;;;;;;;80.83;42.73;;;3.60;99.90;;;;;;5050606;28;20461;-78
2020/12/10 08:56:38;;;;;;;84.03;41.23;;;3.60;99.90;;;;;;5035237;28;20520;-78
2020/12/10 08:59:06;;;;;;;84.27;44.30;;;3.60;99.90;;;;;;5050597;28;20439;-78
2020/12/10 09:01:35;;;;;;;81.90;43.80;;;3.60;99.90;;;;;;5050331;28;20573;-78
2020/12/10 09:04:03;;;;;;;83.33;45.87;;;3.60;99.90;;;;;;5050774;28;20968;-78
2020/12/10 09:06:34;;;;;;;78.43;43.10;;;3.60;99.90;;;;;;5035164;28;20481;-78
2020/12/10 09:09:05;;;;;;;88.73;46.87;;;3.70;99.90;;;;;;5050670;28;20816;-78
2020/12/10 09:11:32;;;;;;;82.83;42.97;;;3.70;99.90;;;;;;5034998;28;20486;-78
2020/12/10 09:14:00;;;;;;;76.37;42.80;;;3.70;99.90;;;;;;5050565;28;20489;-78
2020/12/10 09:16:28;;;;;;;82.23;43.73;;;3.70;99.90;;;;;;5034983;28;20427;-78
2020/12/10 09:18:57;;;;;;;72.83;38.43;;;3.70;99.90;;;;;;5035623;28;20434;-78
2020/12/10 09:21:24;;;;;;;76.87;40.67;;;3.70;99.90;;;;;;5050126;28;20470;-78
2020/12/10 09:23:52;;;;;;;83.70;42.77;;;3.80;99.90;;;;;;5034897;28;20443;-78
2020/12/10 09:26:20;;;;;;;74.13;40.07;;;3.80;99.90;;;;;;5035014;28;20521;-78
2020/12/10 09:28:47;;;;;;;84.80;41.90;;;3.80;99.90;;;;;;5050006;28;20549;-78
2020/12/10 09:31:15;;;;;;;80.23;39.53;;;3.80;99.90;;;;;;5050121;28;20524;-78
2020/12/10 09:33:43;;;;;;;70.83;37.90;;;3.90;99.90;;;;;;5050029;28;20500;-78
2020/12/10 09:36:11;;;;;;;73.37;36.77;;;3.90;99.90;;;;;;5034335;28;20459;-78
2020/12/10 09:38:40;;;;;;;66.30;34.80;;;3.90;99.90;;;;;;5049947;28;20505;-78
2020/12/10 09:41:07;;;;;;;67.87;36.70;;;3.90;99.90;;;;;;5034429;28;20463;-77
2020/12/10 09:43:35;;;;;;;73.80;36.03;;;3.90;99.90;;;;;;5049963;28;20925;-77
2020/12/10 09:46:04;;;;;;;65.03;36.97;;;3.90;99.90;;;;;;5034718;28;20445;-78
2020/12/10 09:48:32;;;;;;;63.87;34.43;;;4.00;99.90;;;;;;5049346;28;20490;-77
2020/12/10 09:50:59;;;;;;;64.03;37.93;;;4.00;99.90;;;;;;5033954;28;20456;-78
2020/12/10 09:53:33;;;;;;;69.27;36.23;;;4.00;99.90;;;;;;5049962;28;20439;-78
2020/12/10 09:56:32;;;;;;;69.27;37.33;;;4.00;99.90;;;;;;5049719;28;20463;-78
2020/12/10 09:59:05;;;;;;;67.10;36.70;;;4.10;99.90;;;;;;5049591;28;20481;-78
2020/12/10 10:01:32;;;;;;;62.20;33.70;;;4.10;99.90;;;;;;5034675;28;20550;-78
2020/12/10 10:03:59;;;;;;;66.43;36.67;;;4.10;99.90;;;;;;5037541;28;20952;-78
2020/12/10 10:06:27;;;;;;;62.60;36.90;;;4.10;99.90;;;;;;5038079;28;20462;-78
2020/12/10 10:08:55;;;;;;;61.23;35.30;;;4.10;99.90;;;;;;5053625;28;20442;-78
2020/12/10 10:11:22;;;;;;;62.40;36.60;;;4.10;99.90;;;;;;5038400;28;20463;-78
2020/12/10 10:13:50;;;;;;;60.23;34.87;;;4.20;99.90;;;;;;5036478;28;20438;-78
2020/12/10 10:16:17;;;;;;;59.47;32.73;;;4.20;99.90;;;;;;5037716;28;20476;-78
2020/12/10 10:18:45;;;;;;;54.80;32.67;;;4.20;99.90;;;;;;5053491;28;20465;-78
2020/12/10 10:21:17;;;;;;;53.27;30.53;;;4.20;99.90;;;;;;5037500;28;20490;-78
2020/12/10 10:23:44;;;;;;;56.87;32.00;;;4.20;99.90;;;;;;5053109;28;20501;-78
2020/12/10 10:26:12;;;;;;;56.00;30.77;;;4.20;99.90;;;;;;5036202;28;20948;-78
2020/12/10 10:28:40;;;;;;;51.30;31.13;;;4.20;99.90;;;;;;5036554;28;20450;-78
2020/12/10 10:31:07;;;;;;;50.17;29.80;;;4.30;99.90;;;;;;5037354;28;20550;-78
2020/12/10 10:33:35;;;;;;;47.80;29.20;;;4.30;99.90;;;;;;5038794;28;20500;-78
2020/12/10 10:36:13;;;;;;;54.90;31.00;;;4.30;99.90;;;;;;5039190;28;20450;-78
2020/12/10 10:38:40;;;;;;;48.00;31.30;;;4.30;99.90;;;;;;5038227;28;20439;-78
2020/12/10 10:41:07;;;;;;;53.20;30.93;;;4.30;99.90;;;;;;5038651;28;20870;-78
2020/12/10 10:43:36;;;;;;;50.27;30.33;;;4.30;99.90;;;;;;5038109;28;20480;-78
2020/12/10 10:46:03;;;;;;;48.57;30.00;;;4.30;99.90;;;;;;5037195;28;20431;-78
2020/12/10 10:48:31;;;;;;;43.10;27.20;;;4.30;99.90;;;;;;5039109;28;20448;-78
2020/12/10 10:50:58;;;;;;;41.20;25.87;;;4.40;99.90;;;;;;5053094;28;20564;-78
2020/12/10 10:53:25;;;;;;;42.77;25.47;;;4.40;99.90;;;;;;5038046;28;20474;-78
2020/12/10 10:55:52;;;;;;;40.00;24.80;;;4.40;99.90;;;;;;5037938;28;20467;-78
2020/12/10 10:58:19;;;;;;;38.33;26.00;;;4.40;99.90;;;;;;5052858;28;20485;-78
2020/12/10 11:00:47;;;;;;;39.63;26.57;;;4.40;99.90;;;;;;5037234;28;20549;-78
2020/12/10 11:03:15;;;;;;;37.10;24.67;;;4.40;99.90;;;;;;5052053;28;20466;-78
2020/12/10 11:05:44;;;;;;;40.93;24.93;;;4.40;99.90;;;;;;5038180;28;20878;-78
2020/12/10 11:08:11;;;;;;;42.20;24.53;;;4.40;99.90;;;;;;5036944;28;20457;-78
2020/12/10 11:10:38;;;;;;;40.13;25.00;;;4.40;99.90;;;;;;5053415;28;20995;-78
2020/12/10 11:13:05;;;;;;;37.43;23.80;;;4.40;99.90;;;;;;5053929;28;20449;-78
2020/12/10 11:15:33;;;;;;;39.83;23.30;;;4.40;99.90;;;;;;5053717;28;20450;-78
2020/12/10 11:18:01;;;;;;;40.72;25.27;;;4.40;99.90;;;;;;5052934;28;20445;-78
2020/12/10 11:20:28;;;;;;;36.97;23.63;;;4.50;99.90;;;;;;5038514;28;20212;-78
2020/12/10 11:22:55;;;;;;;38.10;23.33;;;4.50;99.90;;;;;;5054010;28;20467;-78
2020/12/10 11:25:22;;;;;;;35.13;23.40;;;4.50;99.90;;;;;;5037622;28;20443;-78
2020/12/10 11:27:50;;;;;;;34.40;22.60;;;4.50;99.90;;;;;;5054523;28;20891;-78
2020/12/10 11:30:17;;;;;;;34.57;21.60;;;4.50;99.90;;;;;;5054153;28;20466;-78
2020/12/10 11:32:44;;;;;;;33.57;21.47;;;4.50;99.90;;;;;;5038915;28;20508;-78
2020/12/10 11:35:12;;;;;;;32.57;22.20;;;4.50;99.90;;;;;;5054797;28;20566;-78
2020/12/10 11:37:39;;;;;;;34.00;22.90;;;4.50;99.90;;;;;;5052492;28;20478;-78
2020/12/10 11:40:07;;;;;;;32.13;22.37;;;4.50;99.90;;;;;;5037446;28;20972;-78
2020/12/10 11:42:34;;;;;;;31.70;21.07;;;4.50;99.90;;;;;;5038105;28;20521;-78
2020/12/10 11:45:04;;;;;;;29.03;19.77;;;4.50;99.90;;;;;;5038258;28;20458;-78
2020/12/10 11:47:31;;;;;;;27.53;20.23;;;4.60;99.90;;;;;;5052837;28;20454;-78
2020/12/10 11:49:58;;;;;;;28.03;20.40;;;4.60;99.90;;;;;;5052097;28;20454;-78
2020/12/10 11:52:26;;;;;;;33.90;23.30;;;4.60;99.90;;;;;;5052517;28;20447;-78
2020/12/10 11:54:54;;;;;;;32.00;22.20;;;4.60;99.90;;;;;;5037378;28;20446;-78
2020/12/10 11:57:21;;;;;;;31.37;22.53;;;4.60;99.90;;;;;;5052492;28;20486;-78
2020/12/10 11:59:48;;;;;;;27.83;20.10;;;4.60;99.90;;;;;;5036125;28;20952;-78
2020/12/10 12:02:15;;;;;;;29.60;22.27;;;4.60;99.90;;;;;;5051356;28;20474;-78
2020/12/10 12:04:42;;;;;;;29.30;22.40;;;4.50;99.90;;;;;;5037274;28;20530;-78
2020/12/10 12:07:10;;;;;;;28.40;21.07;;;4.60;99.90;;;;;;5036291;28;20884;-78
2020/12/10 12:09:38;;;;;;;33.93;22.57;;;4.60;99.90;;;;;;5036621;28;20967;-78
2020/12/10 12:12:05;;;;;;;30.17;20.90;;;4.60;99.90;;;;;;5052658;28;20473;-78
2020/12/10 12:14:33;;;;;;;34.70;23.30;;;4.60;99.90;;;;;;5055825;28;20868;-78
2020/12/10 12:17:00;;;;;;;29.50;22.33;;;4.50;99.90;;;;;;5040284;28;20473;-78
2020/12/10 12:19:27;;;;;;;30.30;23.17;;;4.60;99.90;;;;;;5056280;28;20441;-78
2020/12/10 12:21:58;;;;;;;28.17;21.03;;;4.60;99.90;;;;;;5055524;28;20545;-78
2020/12/10 12:24:25;;;;;;;32.23;22.83;;;4.60;99.90;;;;;;5056078;28;20987;-78
2020/12/10 12:26:53;;;;;;;34.17;22.37;;;4.60;99.90;;;;;;5040348;28;20866;-78
2020/12/10 12:29:21;;;;;;;29.90;22.73;;;4.50;99.90;;;;;;5055684;28;20482;-78
2020/12/10 12:31:48;;;;;;;31.70;21.33;;;4.60;99.90;;;;;;5056168;28;20517;-78
2020/12/10 12:34:16;;;;;;;30.43;22.17;;;4.60;99.90;;;;;;5056191;28;20458;-78
2020/12/10 12:36:44;;;;;;;29.67;22.40;;;4.60;99.90;;;;;;5056206;28;20495;-78
2020/12/10 12:39:13;;;;;;;33.17;22.73;;;4.60;99.90;;;;;;5040844;28;20439;-78
2020/12/10 12:41:54;;;;;;;32.97;23.53;;;4.60;99.90;;;;;;5056339;28;21057;-78
2020/12/10 12:44:21;;;;;;;30.07;23.30;;;4.60;99.90;;;;;;5056507;28;20477;-78
2020/12/10 12:46:51;;;;;;;30.57;22.50;;;4.60;99.90;;;;;;5055753;28;20469;-78